METAR Data
IDs: Format: Raw Decoded Include TAF

Data at: 1633 UTC 03 Dec 2021

KLMT 031553Z 00000KT M1/4SM R32/0600V0700FT FZFG VV001 M02/M03 A3022 RMK AO2 SLP251 T10221028
KLMT 031514Z 00000KT M1/4SM R32/1400V1600FT FZFG VV001 M03/M04 A3022 RMK AO2 T10331039 $
KLMT 031453Z 00000KT M1/4SM R32/2200V3500FT FZFG VV001 M04/M04 A3022 RMK AO2 SLP254 I3002 T10391044 53006 $
KLMT 031446Z 00000KT 3/4SM R32/3000V4000FT BR VV002 M04/M05 A3022 RMK AO2 T10391050 $
KLMT 031437Z AUTO 00000KT 1/2SM R32/3000V4500FT FZFG OVC001 M04/M05 A3022 RMK AO2 T10391050 $
KLMT 031412Z AUTO 00000KT 1/4SM R32/1400V2600FT FZFG VV001 M05/M06 A3022 RMK AO2 T10501061 $
KLMT 031403Z AUTO 00000KT 1/4SM R32/1200V1400FT FZFG VV001 M05/M06 A3021 RMK AO2 T10501061 $
KLMT 031353Z AUTO 00000KT 1/4SM R32/1000V2600FT FZFG VV001 M05/M06 A3021 RMK AO2 SLP250 I1001 T10501061 $
KLMT 031349Z AUTO 00000KT 1/4SM R32/1600V3000FT FZFG VV001 M06/M06 A3021 RMK AO2 I1001 $
KLMT 031339Z AUTO 14003KT 3/4SM R32/1400VP6000FT BR VV001 M05/M06 A3021 RMK AO2 I1001 T10501061 $
KLMT 031331Z AUTO 12003KT 2 1/2SM BR BKN001 M05/M06 A3020 RMK AO2 VIS 1 1/2V4 I1000 T10501061 $
KLMT 031316Z AUTO 06003KT 4SM BR FEW001 M04/M04 A3021 RMK AO2 I1000 T10391044 $
KLMT 031303Z AUTO 10004KT 4SM BR BKN001 M02/M03 A3020 RMK AO2 I1000 T10221028 $
KLMT 031259Z AUTO 08003KT 1SM R32/5500VP6000FT BR VV001 M02/M03 A3021 RMK AO2 I1000 T10221028 $
KLMT 031253Z AUTO 00000KT 1/4SM R32/2000VP6000FT FZFG VV001 M03/M04 A3020 RMK AO2 SLP236 I1001 T10331039 $
KLMT 031251Z AUTO VRB03KT 1/4SM R32/1600VP6000FT FZFG VV001 M03/M04 A3020 RMK AO2 I1001 $
KLMT 031226Z AUTO 02003KT 1/4SM R32/1000V1600FT FZFG VV001 M04/M05 A3021 RMK AO2 I1000 T10391050 $
KLMT 031223Z AUTO 02003KT 3/4SM R32/1000V6000FT BR VV001 M04/M05 A3021 RMK AO2 I1000 T10391050 $
KLMT 031221Z AUTO 02003KT 1 1/2SM R32/1200VP6000FT BR BKN002 M04/M05 A3021 RMK AO2 I1000 T10441050 $
KLMT 031216Z AUTO 02003KT 3SM R32/2200VP6000FT BR BKN002 M04/M05 A3021 RMK AO2 I1000 T10441050 $
KLMT 031211Z AUTO 02004KT 1 1/2SM R32/4000VP6000FT BR BKN002 M05/M06 A3021 RMK AO2 T10501056 $
KLMT 031153Z AUTO 00000KT 1SM R32/4000VP6000FT BR M04/M06 A3022 RMK AO2 SLP233 I1001 I6001 T10441056 11006 21050 58000 $
KLMT 031143Z AUTO 00000KT 1/4SM R32/1000V5500FT FZFG M04/M04 A3022 RMK AO2 I1000 T10391044 $
KLMT 031136Z AUTO 00000KT 1/4SM R32/0700V1200FT FZFG M04/M05 A3022 RMK AO2 I1000 T10391050 $
KLMT 031126Z AUTO 00000KT 3/4SM R32/1000V1800FT BR VV001 M04/M06 A3022 RMK AO2 T10441056
KLMT 031121Z AUTO 00000KT 1 3/4SM R32/1000V4500FT BR BKN001 M04/M06 A3022 RMK AO2 VIS 3/4V5 T10441061
KLMT 031117Z AUTO 00000KT 4SM R32/1800VP6000FT BR BKN001 M04/M06 A3022 RMK AO2 T10441056
KLMT 031053Z AUTO 00000KT 8SM R32/3500VP6000FT FEW002 M04/M06 A3022 RMK AO2 SLP236 I1000 T10441056
KLMT 031041Z AUTO 00000KT 6SM R32/4000VP6000FT BR FEW002 M05/M06 A3022 RMK AO2 I1000 T10501056
KLMT 031033Z AUTO 00000KT 2 1/2SM R32/5000VP6000FT BR FEW002 M04/M06 A3022 RMK AO2 I1000 T10441056
KLMT 031012Z AUTO 13003KT 7SM FEW001 M04/M06 A3021 RMK AO2 T10441056
KLMT 030956Z AUTO 13003KT 4SM BR BKN001 M04/M05 A3022 RMK AO2 T10391050
KLMT 030953Z AUTO 00000KT 1 1/4SM BR BKN001 M04/M05 A3022 RMK AO2 SLP234 I1000 T10391050
KLMT 030946Z AUTO 00000KT 1SM R32/1800VP6000FT BR VV001 M04/M05 A3022 RMK AO2 I1000 T10391050
KLMT 030943Z AUTO 00000KT 2 1/2SM R32/1800VP6000FT BR BKN002 M03/M05 A3022 RMK AO2 I1000 T10331050
KLMT 030920Z AUTO 34003KT 10SM SCT002 M03/M04 A3022 RMK AO2 T10331044
KLMT 030753Z AUTO 00000KT 8SM CLR M03/M04 A3023 RMK AO2 SLP241 T10281044 401441050
KLMT 030653Z AUTO 13004KT 6SM BR CLR M03/M04 A3024 RMK AO2 SLP247 T10281044
KLMT 030553Z AUTO 00000KT 10SM CLR 00/M02 A3024 RMK AO2 SLP250 T00001017 10139 21011 51009
KLMT 030453Z AUTO 00000KT 10SM CLR 00/M02 A3022 RMK AO2 SLP250 T00001022
KLMT 030353Z 31003KT 10SM CLR 02/00 A3022 RMK AO2 SLP252 LAST T00170000
KLMT 030253Z 33003KT 10SM CLR 02/M01 A3021 RMK AO2 SLP248 T00171006 53007
KLMT 030153Z 00000KT 10SM CLR 03/00 A3020 RMK AO2 SLP243 T00280000
KLMT 030053Z 22003KT 10SM CLR 09/03 A3018 RMK AO2 SLP228 T00890028
KLMT 022353Z 00000KT 10SM CLR 14/03 A3018 RMK AO2 SLP221 T01390028 10144 20028 56009
KLMT 022253Z 00000KT 10SM CLR 14/03 A3019 RMK AO2 SLP222 T01440028
KLMT 022153Z VRB03KT 10SM CLR 13/02 A3020 RMK AO2 SLP227 T01330022
KLMT 022110Z 00000KT 10SM CLR 12/02 A3021 RMK AO2 T01220017
KLMT 022053Z 00000KT 10SM CLR 12/02 A3021 RMK AO2 SLP230 T01220017 58020
KLMT 021953Z 19003KT 10SM CLR 10/02 A3023 RMK AO2 SLP241 T01000022
KLMT 021853Z COR 00000KT 10SM CLR 08/02 A3027 RMK AO2 SLP255 T00780017
KLMT 021753Z 12003KT 10SM CLR 03/01 A3028 RMK AO2 SLP266 I6001 T00280006 10028 21050 53013
KLMT 021653Z 00000KT 10SM R32/1600V4000FT BCFG BR CLR M01/M01 A3026 RMK AO2 SLP264 I1001 T10061011
KLMT 021645Z 00000KT 10SM R32/1200V3000FT BCFG BR CLR M02/M02 A3026 RMK AO2 I1000 T10171017
KLMT 021553Z 00000KT 1/4SM R32/0500V2000FT BCFG BR VV001 M03/M04 A3025 RMK AO2 SLP264 I1000 T10331044
KLMT 021538Z 00000KT 1/4SM R32/2000V2400FT BCFG BR VV001 M04/M06 A3025 RMK AO2 I1000 T10441056
KLMT 021500Z 04003KT 1SM R32/P6000FT BCFG BR BKN002 M04/M06 A3024 RMK AO2 T10441056
KLMT 021453Z COR 00000KT 1SM R32/P6000FT BCFG BR BKN002 M04/M06 A3023 RMK AO2 SLP256 I1000 I3000 T10391056 53002
KLMT 021353Z AUTO 00000KT 10SM CLR M04/M06 A3023 RMK AO2 SLP252 I1000 T10441056
KLMT 021253Z AUTO 00000KT 10SM CLR M03/M05 A3022 RMK AO2 SLP244 I1000 T10331050
KLMT 021153Z AUTO 00000KT 10SM CLR M04/M06 A3023 RMK AO2 SLP241 I6000 T10441056 10000 21044 58004
KLMT 021053Z AUTO 00000KT 10SM CLR M03/M05 A3024 RMK AO2 SLP243 I1000 T10331050
KLMT 020953Z AUTO 00000KT 10SM CLR M03/M05 A3024 RMK AO2 SLP243 T10331050
KLMT 020853Z AUTO 00000KT 10SM CLR M02/M03 A3024 RMK AO2 SLP241 T10171033 50000
KLMT 020753Z AUTO 00000KT 10SM CLR M02/M03 A3025 RMK AO2 SLP246 T10171033 401391039
KLMT 020653Z AUTO 34003KT 10SM CLR M02/M03 A3024 RMK AO2 SLP248 T10171033
KLMT 020553Z AUTO 00000KT 10SM CLR M01/M02 A3024 RMK AO2 SLP249 T10061022 10111 21017 53002
KLMT 020453Z AUTO 00000KT 10SM CLR M01/M02 A3024 RMK AO2 SLP254 T10061017